Terminal Aerodrome Forecast
Issued by NWS

Home | Current Version | Previous Version | Graphics & Text | Print | Product List | Glossary On
Versions: 1 2 3 4 5 6 7 8 9 10 11 12 13 14 15 16 17
871
FTUS43 KGRB 051530 AAA
TAFATW
TAF AMD
KATW 051530Z 0516/0612 26006KT P6SM SCT100 SCT250
     FM051800 26005KT P6SM SCT100 BKN200
     FM052100 24005KT P6SM BKN070
     FM060500 22005KT 6SM -SN SCT025 BKN050=

USA.gov is the U.S. government's official web portal to all federal, state and local government web resources and services.